Time;durP1;ratioP1;P1;durP2;ratioP2;P2;SDS_P1;SDS_P2;PMS_P1;PMS_P2;Temp;Humidity;BMP_temperature;BMP_pressure;BME280_temperature;BME280_humidity;BME280_pressure;Samples;Min_cycle;Max_cycle;Signal;HPM_P1;HPM_P2
2023/06/11 00:00:59;;;;;;;;;;;;;;;25.00;42.22;100094.74;103847;1294;61374;-85
2023/06/11 00:03:25;;;;;;;;;;;;;;;25.00;42.29;100089.31;103766;1290;61371;-85
2023/06/11 00:05:51;;;;;;;;;;;;;;;25.01;42.26;100091.98;103861;1292;61580;-85
2023/06/11 00:08:17;;;;;;;;;;;;;;;25.01;42.32;100090.02;103957;1291;61510;-85
2023/06/11 00:10:42;;;;;;;;;;;;;;;25.01;42.19;100097.38;104001;1291;61327;-85
2023/06/11 00:13:08;;;;;;;;;;;;;;;25.01;42.35;100095.23;104409;1288;61301;-85
2023/06/11 00:15:33;;;;;;;;;;;;;;;25.02;42.47;100095.33;104544;1287;61410;-85
2023/06/11 00:18:01;;;;;;;;;;;;;;;25.01;42.26;100094.63;104614;1287;61403;-85
2023/06/11 00:20:27;;;;;;;;;;;;;;;25.02;42.26;100092.98;105722;1287;61263;-85
2023/06/11 00:22:54;;;;;;;;;;;;;;;25.02;42.32;100092.23;105665;1287;61323;-85
2023/06/11 00:25:19;;;;;;;;;;;;;;;25.03;42.47;100091.27;105562;1288;61116;-85
2023/06/11 00:27:45;;;;;;;;;;;;;;;25.04;42.40;100093.13;105734;1287;61464;-85
2023/06/11 00:30:11;;;;;;;;;;;;;;;25.04;42.49;100095.23;105469;1289;61263;-85
2023/06/11 00:32:38;;;;;;;;;;;;;;;25.05;42.64;100092.84;105685;1287;59990;-85
2023/06/11 00:35:08;;;;;;;;;;;;;;;25.05;42.54;100091.55;105123;1289;61283;-85
2023/06/11 00:37:35;;;;;;;;;;;;;;;25.06;42.43;100092.91;105097;1289;61432;-85
2023/06/11 00:40:01;;;;;;;;;;;;;;;25.06;42.46;100093.23;105427;1287;64814;-85
2023/06/11 00:42:27;;;;;;;;;;;;;;;25.07;42.37;100092.81;105299;1288;61298;-85
2023/06/11 00:44:54;;;;;;;;;;;;;;;25.07;42.32;100095.48;105220;1288;61293;-85
2023/06/11 00:47:19;;;;;;;;;;;;;;;25.07;42.57;100094.38;105420;1288;59970;-84
2023/06/11 00:49:45;;;;;;;;;;;;;;;25.07;42.71;100092.21;104049;1287;61686;-84
2023/06/11 00:52:13;;;;;;;;;;;;;;;25.08;42.62;100092.18;103778;1289;61397;-84
2023/06/11 00:54:39;;;;;;;;;;;;;;;25.08;42.43;100096.98;103624;1293;61398;-84
2023/06/11 00:57:06;;;;;;;;;;;;;;;25.08;42.44;100098.12;103431;1288;61486;-84
2023/06/11 00:59:34;;;;;;;;;;;;;;;25.07;42.38;100100.48;103661;1291;61959;-84
2023/06/11 01:02:23;;;;;;;;;;;;;;;25.07;42.39;100099.88;103628;1294;66028;-84
2023/06/11 01:04:51;;;;;;;;;;;;;;;25.06;42.34;100102.46;103412;1288;61340;-84
2023/06/11 01:07:16;;;;;;;;;;;;;;;25.05;42.09;100100.70;103420;1289;61262;-84
2023/06/11 01:09:45;;;;;;;;;;;;;;;25.04;42.42;100101.16;103641;1293;61176;-84
2023/06/11 01:12:12;;;;;;;;;;;;;;;25.04;42.22;100097.09;103346;1289;65766;-84
2023/06/11 01:14:38;;;;;;;;;;;;;;;25.03;42.42;100095.39;103526;1289;61388;-84
2023/06/11 01:17:05;;;;;;;;;;;;;;;25.02;42.41;100096.15;103455;1289;61268;-84
2023/06/11 01:19:37;;;;;;;;;;;;;;;25.01;42.44;100094.96;103531;1289;64703;-84
2023/06/11 01:22:16;;;;;;;;;;;;;;;25.01;42.24;100096.27;103547;1288;66879;-84
2023/06/11 01:24:59;;;;;;;;;;;;;;;25.01;42.24;100099.00;103749;1293;61235;-84
2023/06/11 01:27:45;;;;;;;;;;;;;;;25.00;42.27;100101.80;103469;1288;61339;-84
2023/06/11 01:30:17;;;;;;;;;;;;;;;25.00;42.28;100108.67;102799;1298;64994;-84
2023/06/11 01:32:45;;;;;;;;;;;;;;;24.99;42.47;100106.58;102696;1294;65672;-84
2023/06/11 01:35:11;;;;;;;;;;;;;;;24.99;42.32;100104.10;102861;1300;61494;-85
2023/06/11 01:37:38;;;;;;;;;;;;;;;24.99;42.33;100106.98;102820;1294;61917;-85
2023/06/11 01:40:06;;;;;;;;;;;;;;;24.98;42.35;100106.87;102871;1295;62167;-84
2023/06/11 01:42:32;;;;;;;;;;;;;;;24.98;42.54;100111.21;102800;1295;66971;-84
2023/06/11 01:44:59;;;;;;;;;;;;;;;24.98;42.37;100115.37;102784;1294;61891;-84
2023/06/11 01:47:27;;;;;;;;;;;;;;;24.97;42.33;100114.70;102804;1294;61391;-84
2023/06/11 01:49:53;;;;;;;;;;;;;;;24.97;42.29;100115.80;102760;1297;63926;-85
2023/06/11 01:52:18;;;;;;;;;;;;;;;24.97;42.38;100118.69;102714;1294;61420;-84
2023/06/11 01:54:44;;;;;;;;;;;;;;;24.96;42.34;100121.64;102709;1298;61327;-85
2023/06/11 01:57:09;;;;;;;;;;;;;;;24.96;42.37;100126.73;102723;1295;61810;-84
2023/06/11 01:59:35;;;;;;;;;;;;;;;24.95;42.39;100129.62;102702;1298;62334;-84
2023/06/11 02:02:01;;;;;;;;;;;;;;;24.95;42.44;100128.91;102650;1294;61491;-84
2023/06/11 02:04:27;;;;;;;;;;;;;;;24.95;42.25;100129.86;102733;1295;62115;-85
2023/06/11 02:06:53;;;;;;;;;;;;;;;24.94;42.29;100124.85;102718;1289;62136;-84
2023/06/11 02:09:20;;;;;;;;;;;;;;;24.94;42.33;100125.59;103442;1288;61378;-85
2023/06/11 02:11:45;;;;;;;;;;;;;;;24.94;42.24;100129.19;103194;1289;62418;-84
2023/06/11 02:14:11;;;;;;;;;;;;;;;24.94;42.32;100134.06;103243;1288;61457;-84
2023/06/11 02:16:37;;;;;;;;;;;;;;;24.94;42.33;100142.88;103272;1289;61463;-84
2023/06/11 02:19:02;;;;;;;;;;;;;;;24.93;42.30;100155.35;103432;1289;61285;-84
2023/06/11 02:21:28;;;;;;;;;;;;;;;24.93;42.25;100154.98;103149;1288;61340;-84
2023/06/11 02:23:54;;;;;;;;;;;;;;;24.93;42.33;100147.11;103261;1294;61471;-84
2023/06/11 02:26:21;;;;;;;;;;;;;;;24.92;42.44;100153.95;103342;1287;61406;-84
2023/06/11 02:28:47;;;;;;;;;;;;;;;24.92;42.36;100164.26;103292;1287;61355;-84
2023/06/11 02:31:12;;;;;;;;;;;;;;;24.92;42.50;100169.55;103398;1289;61393;-84
2023/06/11 02:33:37;;;;;;;;;;;;;;;24.92;42.39;100176.90;103111;1289;61359;-84
2023/06/11 02:36:03;;;;;;;;;;;;;;;24.92;42.43;100172.77;103395;1289;61464;-84
2023/06/11 02:38:29;;;;;;;;;;;;;;;24.92;42.50;100175.85;103319;1291;61851;-84
2023/06/11 02:40:55;;;;;;;;;;;;;;;24.92;42.48;100178.89;103199;1289;61451;-84
2023/06/11 02:43:21;;;;;;;;;;;;;;;24.91;42.38;100180.70;103321;1289;61454;-84
2023/06/11 02:45:47;;;;;;;;;;;;;;;24.91;42.46;100186.50;103155;1289;61294;-84
2023/06/11 02:48:13;;;;;;;;;;;;;;;24.91;42.43;100188.19;103428;1289;61668;-84
2023/06/11 02:50:39;;;;;;;;;;;;;;;24.91;42.40;100193.88;103306;1289;61311;-84
2023/06/11 02:53:05;;;;;;;;;;;;;;;24.91;42.42;100191.36;102984;1289;63203;-84
2023/06/11 02:55:30;;;;;;;;;;;;;;;24.91;42.36;100192.50;103210;1289;61308;-84
2023/06/11 02:57:56;;;;;;;;;;;;;;;24.91;42.63;100197.71;102951;1289;62531;-85
2023/06/11 03:00:21;;;;;;;;;;;;;;;24.91;42.47;100200.79;103186;1289;61458;-84
2023/06/11 03:02:47;;;;;;;;;;;;;;;24.91;42.60;100205.98;103216;1289;62453;-84
2023/06/11 03:05:12;;;;;;;;;;;;;;;24.91;42.41;100205.26;103174;1288;61385;-84
2023/06/11 03:07:38;;;;;;;;;;;;;;;24.91;42.45;100205.46;103369;1289;61386;-84
2023/06/11 03:10:03;;;;;;;;;;;;;;;24.91;42.56;100206.17;103083;1289;62409;-84
2023/06/11 03:12:29;;;;;;;;;;;;;;;24.90;42.60;100206.22;103208;1289;61376;-84
2023/06/11 03:14:54;;;;;;;;;;;;;;;24.90;42.51;100206.98;103260;1289;61615;-84
2023/06/11 03:17:21;;;;;;;;;;;;;;;24.90;42.51;100209.11;103137;1289;61377;-84
2023/06/11 03:19:47;;;;;;;;;;;;;;;24.90;42.63;100209.27;103122;1289;61486;-84
2023/06/11 03:22:12;;;;;;;;;;;;;;;24.90;42.61;100210.22;103169;1291;61949;-84
2023/06/11 03:24:38;;;;;;;;;;;;;;;24.90;42.54;100213.23;103170;1288;61392;-84
2023/06/11 03:27:03;;;;;;;;;;;;;;;24.90;42.57;100210.77;103330;1289;61859;-85
2023/06/11 03:29:29;;;;;;;;;;;;;;;24.90;42.46;100213.97;103282;1289;61373;-85
2023/06/11 03:31:54;;;;;;;;;;;;;;;24.90;42.54;100214.88;103158;1289;62251;-84
2023/06/11 03:34:20;;;;;;;;;;;;;;;24.90;42.56;100217.21;103153;1288;61390;-84
2023/06/11 03:36:45;;;;;;;;;;;;;;;24.90;42.58;100219.00;103224;1289;62274;-84
2023/06/11 03:39:11;;;;;;;;;;;;;;;24.90;42.56;100219.17;103210;1288;61353;-84
2023/06/11 03:41:37;;;;;;;;;;;;;;;24.90;42.53;100220.64;103185;1289;62417;-84
2023/06/11 03:44:03;;;;;;;;;;;;;;;24.90;42.62;100224.19;103136;1289;61910;-84
2023/06/11 03:46:29;;;;;;;;;;;;;;;24.91;42.64;100229.70;103177;1294;61384;-84
2023/06/11 03:48:54;;;;;;;;;;;;;;;24.90;42.60;100229.42;103015;1289;61473;-84
2023/06/11 03:51:20;;;;;;;;;;;;;;;24.90;42.62;100229.59;103328;1289;61395;-84
2023/06/11 03:53:45;;;;;;;;;;;;;;;24.91;42.67;100230.11;103174;1288;61376;-84
2023/06/11 03:56:11;;;;;;;;;;;;;;;24.91;42.63;100225.75;103340;1289;61285;-84
2023/06/11 03:58:38;;;;;;;;;;;;;;;24.91;42.57;100224.70;103157;1289;61405;-84
2023/06/11 04:01:03;;;;;;;;;;;;;;;24.91;42.67;100228.11;103273;1289;61320;-84
2023/06/11 04:03:29;;;;;;;;;;;;;;;24.91;42.76;100229.40;103204;1289;61421;-84
2023/06/11 04:05:55;;;;;;;;;;;;;;;24.91;42.67;100230.78;103145;1293;61519;-84
2023/06/11 04:08:24;;;;;;;;;;;;;;;24.92;42.45;100236.16;103165;1289;61474;-84
2023/06/11 04:10:49;;;;;;;;;;;;;;;24.92;42.46;100232.88;103349;1288;66934;-84
2023/06/11 04:13:15;;;;;;;;;;;;;;;24.92;42.61;100237.74;103143;1294;61374;-84
2023/06/11 04:15:41;;;;;;;;;;;;;;;24.92;42.60;100238.97;103288;1289;61385;-84
2023/06/11 04:18:06;;;;;;;;;;;;;;;24.92;42.50;100239.30;103420;1291;61478;-84
2023/06/11 04:20:33;;;;;;;;;;;;;;;24.93;42.56;100238.00;103120;1289;62515;-84
2023/06/11 04:22:58;;;;;;;;;;;;;;;24.94;42.52;100242.42;103180;1289;61352;-84
2023/06/11 04:25:24;;;;;;;;;;;;;;;24.95;42.60;100246.65;103393;1288;61822;-84
2023/06/11 04:27:52;;;;;;;;;;;;;;;24.95;42.61;100246.13;103241;1289;61768;-84
2023/06/11 04:30:18;;;;;;;;;;;;;;;24.95;42.68;100242.31;103180;1292;63838;-84
2023/06/11 04:32:44;;;;;;;;;;;;;;;24.96;42.60;100248.20;103050;1294;61338;-84
2023/06/11 04:35:10;;;;;;;;;;;;;;;24.96;42.60;100242.23;103251;1287;62449;-84
2023/06/11 04:37:40;;;;;;;;;;;;;;;24.97;42.57;100242.86;103196;1294;61356;-84
2023/06/11 04:40:10;;;;;;;;;;;;;;;24.98;42.69;100241.16;103216;1289;64818;-84
2023/06/11 04:42:41;;;;;;;;;;;;;;;24.99;42.70;100238.70;103223;1287;66687;-84
2023/06/11 04:45:09;;;;;;;;;;;;;;;25.00;42.65;100237.38;103323;1288;61286;-84
2023/06/11 04:47:36;;;;;;;;;;;;;;;25.01;42.63;100237.96;103465;1289;61474;-84
2023/06/11 04:50:04;;;;;;;;;;;;;;;25.01;42.52;100237.95;103072;1289;63783;-83
2023/06/11 04:52:35;;;;;;;;;;;;;;;25.02;42.53;100241.46;103134;1292;65633;-84
2023/06/11 04:55:01;;;;;;;;;;;;;;;25.03;42.66;100246.26;102934;1292;61315;-84
2023/06/11 04:57:32;;;;;;;;;;;;;;;25.03;42.59;100252.20;103138;1289;62471;-84
2023/06/11 04:59:58;;;;;;;;;;;;;;;25.03;42.52;100248.58;103173;1289;64709;-84
2023/06/11 05:02:26;;;;;;;;;;;;;;;25.04;42.60;100246.51;103155;1293;65890;-84
2023/06/11 05:04:53;;;;;;;;;;;;;;;25.05;42.56;100249.61;103320;1288;61349;-84
2023/06/11 05:07:19;;;;;;;;;;;;;;;25.06;42.75;100248.11;103419;1288;62421;-84
2023/06/11 05:09:45;;;;;;;;;;;;;;;25.07;42.72;100249.83;103106;1289;61377;-84
2023/06/11 05:12:12;;;;;;;;;;;;;;;25.07;42.67;100253.16;103294;1289;62229;-84
2023/06/11 05:14:37;;;;;;;;;;;;;;;25.08;42.55;100257.63;103201;1287;61487;-84
2023/06/11 05:17:04;;;;;;;;;;;;;;;25.08;42.58;100262.42;103359;1289;61664;-83
2023/06/11 05:19:29;;;;;;;;;;;;;;;25.09;42.67;100271.73;103321;1291;61882;-83
2023/06/11 05:21:55;;;;;;;;;;;;;;;25.10;42.46;100272.35;103141;1292;61393;-84
2023/06/11 05:24:21;;;;;;;;;;;;;;;25.11;42.66;100267.98;103173;1292;62430;-84
2023/06/11 05:26:46;;;;;;;;;;;;;;;25.12;42.60;100272.05;103140;1291;61368;-84
2023/06/11 05:29:12;;;;;;;;;;;;;;;25.13;42.62;100265.66;103167;1289;62527;-83
2023/06/11 05:31:39;;;;;;;;;;;;;;;25.13;42.48;100263.27;103107;1294;61286;-84
2023/06/11 05:34:05;;;;;;;;;;;;;;;25.14;42.56;100268.18;103262;1289;61305;-84
2023/06/11 05:36:31;;;;;;;;;;;;;;;25.15;42.58;100269.54;103012;1289;61289;-84
2023/06/11 05:38:56;;;;;;;;;;;;;;;25.16;42.62;100270.20;103401;1288;62435;-84
2023/06/11 05:41:22;;;;;;;;;;;;;;;25.17;42.46;100269.05;103089;1291;61340;-84
2023/06/11 05:43:48;;;;;;;;;;;;;;;25.18;42.75;100270.16;103420;1291;62446;-84
2023/06/11 05:46:14;;;;;;;;;;;;;;;25.18;42.46;100266.73;103134;1294;65852;-84
2023/06/11 05:48:41;;;;;;;;;;;;;;;25.19;42.42;100267.91;103185;1289;61457;-84
2023/06/11 05:51:06;;;;;;;;;;;;;;;25.20;42.64;100270.71;103346;1291;61403;-84
2023/06/11 05:53:32;;;;;;;;;;;;;;;25.20;42.63;100276.98;103108;1289;61343;-83
2023/06/11 05:56:03;;;;;;;;;;;;;;;25.21;42.52;100277.61;103350;1287;62380;-84
2023/06/11 05:58:31;;;;;;;;;;;;;;;25.21;42.58;100277.92;103372;1287;61288;-83
2023/06/11 06:01:01;;;;;;;;;;;;;;;25.22;42.48;100276.59;103426;1287;61273;-84
2023/06/11 06:03:26;;;;;;;;;;;;;;;25.23;42.72;100276.90;103193;1292;63939;-84
2023/06/11 06:05:52;;;;;;;;;;;;;;;25.23;42.67;100274.47;103174;1289;61464;-84
2023/06/11 06:08:17;;;;;;;;;;;;;;;25.24;42.36;100277.48;103124;1289;61383;-84
2023/06/11 06:10:43;;;;;;;;;;;;;;;25.25;42.50;100279.95;103129;1289;61404;-83
2023/06/11 06:13:09;;;;;;;;;;;;;;;25.25;42.50;100278.10;103258;1289;61297;-84
2023/06/11 06:15:35;;;;;;;;;;;;;;;25.26;42.49;100281.29;103185;1289;61958;-84
2023/06/11 06:18:02;;;;;;;;;;;;;;;25.26;42.42;100282.34;103332;1291;66055;-84
2023/06/11 06:20:29;;;;;;;;;;;;;;;25.26;42.67;100287.52;103167;1287;61368;-84
2023/06/11 06:22:54;;;;;;;;;;;;;;;25.27;42.53;100286.19;103107;1293;61362;-84
2023/06/11 06:25:20;;;;;;;;;;;;;;;25.27;42.51;100276.10;103109;1289;62037;-84
2023/06/11 06:27:45;;;;;;;;;;;;;;;25.28;42.41;100279.28;103352;1289;61382;-84
2023/06/11 06:30:11;;;;;;;;;;;;;;;25.28;42.54;100280.50;103293;1289;62322;-84
2023/06/11 06:32:38;;;;;;;;;;;;;;;25.29;42.40;100277.95;103516;1289;61282;-84
2023/06/11 06:35:05;;;;;;;;;;;;;;;25.29;42.44;100278.45;103351;1289;61924;-84
2023/06/11 06:37:30;;;;;;;;;;;;;;;25.29;42.46;100284.21;103168;1294;61329;-84
2023/06/11 06:39:56;;;;;;;;;;;;;;;25.30;42.54;100286.13;103402;1291;61265;-84
2023/06/11 06:42:23;;;;;;;;;;;;;;;25.30;42.56;100285.38;103103;1289;61349;-84
2023/06/11 06:44:49;;;;;;;;;;;;;;;25.31;42.57;100286.61;103233;1289;61295;-84
2023/06/11 06:47:14;;;;;;;;;;;;;;;25.31;42.57;100284.76;103355;1289;61295;-84
2023/06/11 06:49:40;;;;;;;;;;;;;;;25.31;42.70;100278.98;103322;1289;61368;-84
2023/06/11 06:52:06;;;;;;;;;;;;;;;25.31;42.48;100279.30;103121;1289;61374;-84
2023/06/11 06:54:31;;;;;;;;;;;;;;;25.32;42.57;100277.83;103349;1291;61477;-84
2023/06/11 06:56:57;;;;;;;;;;;;;;;25.32;42.50;100280.86;103241;1292;62387;-84
2023/06/11 06:59:22;;;;;;;;;;;;;;;25.32;42.58;100280.17;103333;1287;61416;-84
2023/06/11 07:01:48;;;;;;;;;;;;;;;25.32;42.52;100279.97;103285;1289;61922;-85
2023/06/11 07:04:13;;;;;;;;;;;;;;;25.32;42.54;100276.90;103192;1294;61531;-84
2023/06/11 07:06:40;;;;;;;;;;;;;;;25.32;42.61;100276.89;103405;1289;62379;-85
2023/06/11 07:09:06;;;;;;;;;;;;;;;25.32;42.62;100274.36;103256;1294;61271;-84
2023/06/11 07:11:33;;;;;;;;;;;;;;;25.32;42.46;100274.55;103112;1289;62544;-84
2023/06/11 07:14:00;;;;;;;;;;;;;;;25.33;42.60;100276.67;102636;1289;678778;-84
2023/06/11 07:16:25;;;;;;;;;;;;;;;25.32;42.60;100274.56;103221;1292;61341;-84
2023/06/11 07:18:51;;;;;;;;;;;;;;;25.33;42.37;100276.33;103203;1288;61311;-84
2023/06/11 07:21:17;;;;;;;;;;;;;;;25.33;42.52;100275.39;103090;1292;65903;-84
2023/06/11 07:23:43;;;;;;;;;;;;;;;25.33;42.62;100273.80;103129;1292;61353;-84
2023/06/11 07:26:10;;;;;;;;;;;;;;;25.32;42.46;100275.63;103139;1289;62111;-84
2023/06/11 07:28:36;;;;;;;;;;;;;;;25.32;42.50;100271.84;103156;1293;61449;-84
2023/06/11 07:31:01;;;;;;;;;;;;;;;25.32;42.27;100272.55;103367;1289;61362;-84
2023/06/11 07:33:29;;;;;;;;;;;;;;;25.32;42.56;100272.73;103189;1289;62073;-83
2023/06/11 07:35:56;;;;;;;;;;;;;;;25.32;42.54;100272.02;103127;1294;61279;-84
2023/06/11 07:38:22;;;;;;;;;;;;;;;25.32;42.52;100270.41;103179;1289;61482;-84
2023/06/11 07:40:48;;;;;;;;;;;;;;;25.32;42.48;100270.61;103210;1294;61291;-84
2023/06/11 07:43:14;;;;;;;;;;;;;;;25.32;42.55;100272.03;103309;1289;62456;-84
2023/06/11 07:45:39;;;;;;;;;;;;;;;25.32;42.53;100268.45;103160;1289;61350;-84
2023/06/11 07:48:05;;;;;;;;;;;;;;;25.32;42.43;100268.08;103156;1294;61339;-84
2023/06/11 07:50:30;;;;;;;;;;;;;;;25.32;42.45;100275.85;103414;1289;61279;-84
2023/06/11 07:52:56;;;;;;;;;;;;;;;25.32;42.57;100272.98;103228;1289;61457;-84
2023/06/11 07:55:22;;;;;;;;;;;;;;;25.32;42.43;100273.85;103131;1294;61441;-84
2023/06/11 07:57:48;;;;;;;;;;;;;;;25.32;42.57;100274.92;103132;1289;61349;-84
2023/06/11 08:00:16;;;;;;;;;;;;;;;25.32;42.58;100272.92;103170;1294;61368;-84
2023/06/11 08:02:42;;;;;;;;;;;;;;;25.32;42.61;100273.69;103314;1289;61596;-84
2023/06/11 08:05:10;;;;;;;;;;;;;;;25.32;42.61;100272.74;103184;1289;61485;-84
2023/06/11 08:07:35;;;;;;;;;;;;;;;25.32;42.47;100272.58;103271;1287;61973;-83
2023/06/11 08:10:03;;;;;;;;;;;;;;;25.32;42.52;100271.50;103151;1294;61864;-84
2023/06/11 08:12:29;;;;;;;;;;;;;;;25.32;42.57;100270.25;103169;1293;64702;-84
2023/06/11 08:14:55;;;;;;;;;;;;;;;25.32;42.62;100272.58;103175;1290;62423;-85
2023/06/11 08:17:21;;;;;;;;;;;;;;;25.32;42.50;100276.71;103120;1289;61301;-84
2023/06/11 08:19:47;;;;;;;;;;;;;;;25.32;42.50;100274.05;103162;1289;61415;-83
2023/06/11 08:22:12;;;;;;;;;;;;;;;25.32;42.47;100275.27;103186;1289;61458;-84
2023/06/11 08:24:38;;;;;;;;;;;;;;;25.32;42.41;100276.88;103203;1294;61384;-84
2023/06/11 08:27:03;;;;;;;;;;;;;;;25.32;42.58;100280.83;103157;1294;67041;-84
2023/06/11 08:29:29;;;;;;;;;;;;;;;25.33;42.70;100279.92;102933;1289;61547;-85
2023/06/11 08:31:54;;;;;;;;;;;;;;;25.33;42.57;100278.09;103115;1289;62684;-84
2023/06/11 08:34:20;;;;;;;;;;;;;;;25.32;42.49;100274.91;103118;1289;61698;-84
2023/06/11 08:36:46;;;;;;;;;;;;;;;25.32;42.52;100272.27;103159;1292;62401;-84
2023/06/11 08:39:11;;;;;;;;;;;;;;;25.32;42.46;100270.27;103349;1291;61403;-83
2023/06/11 08:41:38;;;;;;;;;;;;;;;25.32;42.57;100274.80;103162;1294;61308;-84
2023/06/11 08:44:05;;;;;;;;;;;;;;;25.32;42.59;100275.17;103092;1289;61378;-84
2023/06/11 08:46:36;;;;;;;;;;;;;;;25.32;42.69;100276.08;103274;1290;61551;-84
2023/06/11 08:49:06;;;;;;;;;;;;;;;25.32;42.69;100278.17;103397;1291;66897;-84
2023/06/11 08:51:37;;;;;;;;;;;;;;;25.32;42.65;100276.76;103105;1292;62620;-84
2023/06/11 08:54:07;;;;;;;;;;;;;;;25.32;42.42;100274.91;103304;1289;61336;-84
2023/06/11 08:56:32;;;;;;;;;;;;;;;25.32;42.50;100274.94;103321;1287;64934;-84
2023/06/11 08:59:00;;;;;;;;;;;;;;;25.32;42.67;100276.01;103320;1291;61475;-84
2023/06/11 09:01:26;;;;;;;;;;;;;;;25.32;42.46;100277.47;103250;1289;61294;-84
2023/06/11 09:03:52;;;;;;;;;;;;;;;25.33;42.54;100276.85;103189;1292;61274;-85
2023/06/11 09:06:21;;;;;;;;;;;;;;;25.33;42.49;100273.92;103120;1288;61979;-84
2023/06/11 09:09:05;;;;;;;;;;;;;;;25.33;42.55;100272.14;103127;1289;66765;-84
2023/06/11 09:11:34;;;;;;;;;;;;;;;25.34;42.61;100265.42;103406;1288;61843;-83
2023/06/11 09:14:01;;;;;;;;;;;;;;;25.33;42.51;100264.55;103105;1292;61671;-84
2023/06/11 09:16:27;;;;;;;;;;;;;;;25.34;42.59;100263.10;103172;1287;63803;-84
2023/06/11 09:18:54;;;;;;;;;;;;;;;25.33;42.57;100265.45;103318;1291;61733;-84
2023/06/11 09:21:22;;;;;;;;;;;;;;;25.33;42.60;100262.94;103179;1289;61727;-84
2023/06/11 09:23:48;;;;;;;;;;;;;;;25.33;42.53;100261.01;103980;1294;61288;-84
2023/06/11 09:26:17;;;;;;;;;;;;;;;25.33;42.52;100254.67;103980;1289;61435;-84
2023/06/11 09:28:43;;;;;;;;;;;;;;;25.33;42.52;100253.05;104076;1292;66831;-84
2023/06/11 09:31:08;;;;;;;;;;;;;;;25.34;42.59;100252.29;103228;1292;61414;-84
2023/06/11 09:33:34;;;;;;;;;;;;;;;25.34;42.72;100251.53;103377;1291;61321;-84
2023/06/11 09:36:00;;;;;;;;;;;;;;;25.34;42.51;100246.46;103003;1290;61381;-85
2023/06/11 09:38:27;;;;;;;;;;;;;;;25.35;42.67;100251.47;103249;1294;61437;-84
2023/06/11 09:40:54;;;;;;;;;;;;;;;25.35;42.72;100253.80;103389;1289;61923;-84
2023/06/11 09:43:21;;;;;;;;;;;;;;;25.34;42.58;100250.75;103134;1289;61441;-84
2023/06/11 09:45:48;;;;;;;;;;;;;;;25.35;42.57;100255.96;103192;1289;62042;-84
2023/06/11 09:48:13;;;;;;;;;;;;;;;25.35;42.67;100254.34;103148;1289;61414;-84
2023/06/11 09:50:41;;;;;;;;;;;;;;;25.34;42.68;100257.98;103298;1293;61417;-84
2023/06/11 09:53:07;;;;;;;;;;;;;;;25.34;42.63;100252.40;103155;1295;61464;-84
2023/06/11 09:55:35;;;;;;;;;;;;;;;25.35;42.44;100252.76;103111;1293;61307;-84
2023/06/11 09:58:01;;;;;;;;;;;;;;;25.34;42.61;100249.56;103068;1294;65946;-84
2023/06/11 10:00:27;;;;;;;;;;;;;;;25.34;42.64;100251.52;103261;1292;61302;-84
2023/06/11 10:02:53;;;;;;;;;;;;;;;25.34;42.68;100252.64;103151;1294;61551;-84
2023/06/11 10:05:19;;;;;;;;;;;;;;;25.34;42.68;100248.30;103132;1289;61431;-84
2023/06/11 10:07:45;;;;;;;;;;;;;;;25.34;42.67;100246.85;103125;1294;61455;-84
2023/06/11 10:10:11;;;;;;;;;;;;;;;25.34;42.81;100248.13;103063;1292;61293;-84
2023/06/11 10:12:37;;;;;;;;;;;;;;;25.33;42.56;100249.76;103155;1289;61385;-84
2023/06/11 10:15:05;;;;;;;;;;;;;;;25.33;42.56;100247.64;103200;1289;62284;-84
2023/06/11 10:17:30;;;;;;;;;;;;;;;25.33;42.55;100246.76;103248;1288;64940;-84
2023/06/11 10:19:56;;;;;;;;;;;;;;;25.33;42.47;100252.90;103074;1289;61362;-84
2023/06/11 10:22:34;;;;;;;;;;;;;;;25.32;42.54;100245.19;103109;1289;61429;-85
2023/06/11 10:25:00;;;;;;;;;;;;;;;25.32;42.57;100241.58;103265;1289;61345;-84
2023/06/11 10:27:38;;;;;;;;;;;;;;;25.32;42.47;100241.04;103150;1290;61404;-84
2023/06/11 10:30:07;;;;;;;;;;;;;;;25.32;42.63;100239.27;103123;1292;66918;-84
2023/06/11 10:32:33;;;;;;;;;;;;;;;25.32;42.48;100239.24;103172;1289;61363;-84
2023/06/11 10:35:03;;;;;;;;;;;;;;;25.33;42.53;100239.54;103145;1295;62723;-84
2023/06/11 10:37:40;;;;;;;;;;;;;;;25.33;42.64;100238.32;103386;1287;63702;-84
2023/06/11 10:40:07;;;;;;;;;;;;;;;25.32;42.49;100236.89;103148;1289;66857;-84
2023/06/11 10:42:35;;;;;;;;;;;;;;;25.33;42.69;100235.56;103105;1292;61310;-84
2023/06/11 10:45:10;;;;;;;;;;;;;;;25.33;42.64;100236.99;103165;1289;61357;-84
2023/06/11 10:47:42;;;;;;;;;;;;;;;25.34;42.57;100229.97;103324;1289;63720;-84
2023/06/11 10:50:08;;;;;;;;;;;;;;;25.34;42.60;100223.45;103340;1290;66609;-84
2023/06/11 10:52:50;;;;;;;;;;;;;;;25.34;42.50;100219.67;103124;1294;61393;-84
2023/06/11 10:55:17;;;;;;;;;;;;;;;25.34;42.48;100218.59;103286;1290;61292;-84
2023/06/11 10:57:42;;;;;;;;;;;;;;;25.34;42.55;100214.75;103187;1292;64709;-84
2023/06/11 11:00:09;;;;;;;;;;;;;;;25.34;42.51;100209.36;102797;1294;62380;-84
2023/06/11 11:02:35;;;;;;;;;;;;;;;25.35;42.54;100200.68;103106;1292;62414;-84
2023/06/11 11:05:06;;;;;;;;;;;;;;;25.35;42.35;100187.88;103177;1294;61458;-84
2023/06/11 11:07:36;;;;;;;;;;;;;;;25.35;42.47;100185.36;103168;1295;63961;-84
2023/06/11 11:10:02;;;;;;;;;;;;;;;25.35;42.35;100185.52;103105;1290;66591;-84
2023/06/11 11:12:39;;;;;;;;;;;;;;;25.35;42.47;100187.71;103116;1294;62123;-84
2023/06/11 11:15:05;;;;;;;;;;;;;;;25.35;42.60;100187.71;103292;1291;61459;-84
2023/06/11 11:17:31;;;;;;;;;;;;;;;25.35;42.61;100180.70;103277;1292;61391;-84
2023/06/11 11:19:57;;;;;;;;;;;;;;;25.35;42.39;100175.80;103284;1292;61382;-84
2023/06/11 11:22:22;;;;;;;;;;;;;;;25.35;42.43;100173.63;103319;1289;61298;-84
2023/06/11 11:24:48;;;;;;;;;;;;;;;25.36;42.55;100170.50;103360;1292;61445;-84
2023/06/11 11:27:14;;;;;;;;;;;;;;;25.36;42.56;100168.52;103123;1294;61348;-84
2023/06/11 11:29:40;;;;;;;;;;;;;;;25.36;42.47;100161.66;103134;1295;62281;-84
2023/06/11 11:32:06;;;;;;;;;;;;;;;25.36;42.43;100161.25;102911;1290;61749;-84
2023/06/11 11:34:32;;;;;;;;;;;;;;;25.37;42.48;100164.46;103088;1295;61486;-84
2023/06/11 11:36:57;;;;;;;;;;;;;;;25.36;42.52;100157.48;103311;1292;61953;-84
2023/06/11 11:39:23;;;;;;;;;;;;;;;25.37;42.60;100162.45;103127;1294;62169;-84
2023/06/11 11:41:51;;;;;;;;;;;;;;;25.37;42.55;100159.02;103053;1292;62642;-84
2023/06/11 11:44:19;;;;;;;;;;;;;;;25.37;42.48;100159.52;103090;1292;61304;-84
2023/06/11 11:46:45;;;;;;;;;;;;;;;25.37;42.49;100162.20;103355;1288;61369;-84
2023/06/11 11:49:11;;;;;;;;;;;;;;;25.38;42.53;100161.06;103128;1295;62437;-84
2023/06/11 11:51:37;;;;;;;;;;;;;;;25.38;42.46;100158.00;103082;1292;61453;-84
2023/06/11 11:54:03;;;;;;;;;;;;;;;25.39;42.38;100158.52;103213;1292;61487;-84
2023/06/11 11:56:33;;;;;;;;;;;;;;;25.39;42.63;100154.48;103117;1292;61372;-84
2023/06/11 11:58:58;;;;;;;;;;;;;;;25.39;42.71;100155.20;103115;1292;63694;-84
2023/06/11 12:01:26;;;;;;;;;;;;;;;25.39;42.45;100154.83;103271;1292;61400;-84
2023/06/11 12:03:55;;;;;;;;;;;;;;;25.39;42.63;100163.27;103238;1292;61730;-83
2023/06/11 12:06:23;;;;;;;;;;;;;;;25.39;42.60;100166.52;103301;1291;61301;-83
2023/06/11 12:08:50;;;;;;;;;;;;;;;25.40;42.62;100167.01;103373;1290;64085;-84
2023/06/11 12:11:17;;;;;;;;;;;;;;;25.41;42.46;100169.46;103433;1289;65879;-83
2023/06/11 12:13:43;;;;;;;;;;;;;;;25.41;42.51;100168.36;103348;1292;62005;-84
2023/06/11 12:16:08;;;;;;;;;;;;;;;25.41;42.53;100164.55;103196;1292;61388;-84
2023/06/11 12:18:35;;;;;;;;;;;;;;;25.41;42.44;100165.11;102893;1292;61967;-84
2023/06/11 12:21:01;;;;;;;;;;;;;;;25.41;42.50;100164.35;103154;1294;61323;-84
2023/06/11 12:23:27;;;;;;;;;;;;;;;25.41;42.54;100164.71;103154;1292;61439;-83